Time;durP1;ratioP1;P1;durP2;ratioP2;P2;SDS_P1;SDS_P2;PMS_P1;PMS_P2;Temp;Humidity;BMP_temperature;BMP_pressure;BME280_temperature;BME280_humidity;BME280_pressure;Samples;Min_cycle;Max_cycle;Signal;HPM_P1;HPM_P2
2023/01/23 00:01:05;;;;;;;20.35;13.82;;;5.40;99.90;;;;;;4891422;29;20103;-74
2023/01/23 00:03:32;;;;;;;18.80;13.70;;;5.40;99.90;;;;;;4896926;29;20048;-71
2023/01/23 00:06:06;;;;;;;18.30;12.93;;;5.40;99.90;;;;;;4899077;29;20032;-69
2023/01/23 00:08:33;;;;;;;11.73;8.73;;;5.40;99.90;;;;;;4896734;29;20040;-69
2023/01/23 00:10:59;;;;;;;11.40;8.77;;;5.40;99.90;;;;;;4894339;29;20051;-69
2023/01/23 00:13:25;;;;;;;7.65;5.53;;;5.40;99.90;;;;;;4900312;29;20804;-69
2023/01/23 00:15:51;;;;;;;5.97;4.40;;;5.40;99.90;;;;;;4895935;29;20048;-69
2023/01/23 00:18:16;;;;;;;6.88;5.00;;;5.40;99.90;;;;;;4884639;29;20040;-70
2023/01/23 00:20:42;;;;;;;7.88;5.88;;;5.40;99.90;;;;;;4895471;29;20040;-74
2023/01/23 00:23:09;;;;;;;6.68;4.95;;;5.30;99.90;;;;;;4894344;29;20040;-75
2023/01/23 00:25:35;;;;;;;7.78;5.40;;;5.40;99.90;;;;;;4895166;29;20052;-73
2023/01/23 00:28:02;;;;;;;7.97;4.82;;;5.30;99.90;;;;;;4899704;29;20147;-74
2023/01/23 00:30:27;;;;;;;6.03;4.88;;;5.20;99.90;;;;;;4896392;29;20183;-74
2023/01/23 00:32:53;;;;;;;7.05;4.80;;;5.30;99.90;;;;;;4885365;29;20131;-72
2023/01/23 00:35:19;;;;;;;6.80;4.93;;;5.30;99.90;;;;;;4896248;29;20099;-72
2023/01/23 00:37:45;;;;;;;6.80;4.75;;;5.30;99.90;;;;;;4889979;29;20029;-72
2023/01/23 00:40:12;;;;;;;4.95;4.45;;;5.20;99.90;;;;;;4892679;29;20802;-72
2023/01/23 00:42:38;;;;;;;5.82;4.70;;;5.10;99.90;;;;;;4889124;29;20039;-75
2023/01/23 00:45:04;;;;;;;6.28;5.03;;;5.00;99.90;;;;;;4897100;29;20036;-74
2023/01/23 00:47:30;;;;;;;7.35;4.68;;;4.90;99.90;;;;;;4887243;29;20284;-74
2023/01/23 00:49:57;;;;;;;6.45;4.68;;;4.90;99.90;;;;;;4893065;29;20399;-71
2023/01/23 00:52:24;;;;;;;5.93;4.28;;;4.90;99.90;;;;;;4886733;29;20054;-70
2023/01/23 00:54:49;;;;;;;5.47;4.03;;;5.00;99.90;;;;;;4891400;29;20072;-75
2023/01/23 00:57:15;;;;;;;4.88;3.95;;;5.00;99.90;;;;;;4889729;29;20119;-72
2023/01/23 00:59:41;;;;;;;5.47;3.88;;;5.10;99.90;;;;;;4891363;29;20068;-73
2023/01/23 01:02:07;;;;;;;4.10;3.70;;;5.10;99.90;;;;;;4884620;29;20041;-70
2023/01/23 01:04:33;;;;;;;3.90;3.50;;;5.20;99.90;;;;;;4880654;29;20044;-73
2023/01/23 01:06:58;;;;;;;4.75;3.80;;;5.30;99.90;;;;;;4888980;29;20051;-73
2023/01/23 01:09:24;;;;;;;5.43;3.92;;;5.40;99.90;;;;;;4889013;29;20064;-73
2023/01/23 01:11:50;;;;;;;4.45;3.45;;;5.50;99.90;;;;;;4895112;29;20036;-73
2023/01/23 01:14:16;;;;;;;7.25;4.25;;;5.50;99.90;;;;;;4895680;29;20480;-73
2023/01/23 01:16:44;;;;;;;4.25;3.50;;;5.50;99.90;;;;;;4889800;29;20055;-72
2023/01/23 01:19:11;;;;;;;4.50;3.45;;;5.40;99.90;;;;;;4896414;29;20032;-73
2023/01/23 01:21:38;;;;;;;5.38;3.40;;;5.50;99.90;;;;;;4896193;29;20131;-74
2023/01/23 01:24:04;;;;;;;4.57;3.10;;;5.50;99.90;;;;;;4889705;29;20051;-73
2023/01/23 01:26:30;;;;;;;6.47;3.55;;;5.60;99.90;;;;;;4892041;29;20043;-73
2023/01/23 01:28:55;;;;;;;4.35;3.92;;;5.60;99.90;;;;;;4895169;29;20048;-73
2023/01/23 01:31:21;;;;;;;7.05;3.78;;;5.70;99.90;;;;;;4891417;29;20505;-73
2023/01/23 01:33:48;;;;;;;4.32;3.50;;;5.70;99.90;;;;;;4893053;29;20043;-73
2023/01/23 01:36:17;;;;;;;5.40;4.25;;;5.80;99.90;;;;;;4889490;29;20056;-73
2023/01/23 01:38:43;;;;;;;9.35;5.57;;;5.90;99.90;;;;;;4889804;29;20552;-73
2023/01/23 01:41:11;;;;;;;7.22;5.70;;;5.90;99.90;;;;;;4888217;29;20064;-73
2023/01/23 01:43:36;;;;;;;9.18;5.85;;;5.90;99.90;;;;;;4894545;29;20037;-73
2023/01/23 01:46:20;;;;;;;4.93;4.20;;;5.90;99.90;;;;;;4891158;29;20035;-75
2023/01/23 01:49:06;;;;;;;6.28;4.25;;;5.90;99.90;;;;;;4874706;29;20824;-74
2023/01/23 01:51:37;;;;;;;5.32;4.50;;;5.80;99.90;;;;;;4894130;29;20240;-74
2023/01/23 01:54:21;;;;;;;5.53;3.95;;;5.80;99.90;;;;;;4895629;29;20691;-74
2023/01/23 01:56:52;;;;;;;6.10;4.05;;;5.60;99.90;;;;;;4889890;29;20055;-74
2023/01/23 01:59:20;;;;;;;5.28;4.32;;;5.40;99.90;;;;;;4890737;29;20129;-73
2023/01/23 02:01:50;;;;;;;6.45;4.20;;;5.30;99.90;;;;;;4891936;29;20040;-73
2023/01/23 02:04:16;;;;;;;5.82;3.80;;;5.30;99.90;;;;;;4889773;29;20044;-73
2023/01/23 02:06:43;;;;;;;4.85;3.78;;;5.20;99.90;;;;;;4894542;29;20123;-73
2023/01/23 02:09:21;;;;;;;5.82;4.13;;;5.00;99.90;;;;;;4887562;29;20037;-73
2023/01/23 02:11:48;;;;;;;5.85;4.45;;;4.70;99.90;;;;;;4892875;29;20040;-73
2023/01/23 02:14:14;;;;;;;5.00;4.15;;;4.70;99.90;;;;;;4897992;29;20055;-73
2023/01/23 02:16:45;;;;;;;7.38;4.47;;;4.60;99.90;;;;;;4894472;29;20494;-73
2023/01/23 02:19:41;;;;;;;5.25;4.28;;;4.50;99.90;;;;;;4899634;29;20569;-73
2023/01/23 02:22:21;;;;;;;6.55;3.97;;;4.40;99.90;;;;;;4912623;28;20052;-73
2023/01/23 02:25:24;;;;;;;7.80;3.90;;;4.30;99.90;;;;;;4898772;29;20389;-72
2023/01/23 02:27:49;;;;;;;;;;;4.30;99.90;;;;;;4899091;29;20053;-73
2023/01/23 02:30:17;;;;;;;4.85;4.28;;;4.20;99.90;;;;;;4899231;29;20055;-74
2023/01/23 02:32:42;;;;;;;5.93;4.38;;;4.20;99.90;;;;;;4897849;29;20126;-73
2023/01/23 02:35:20;;;;;;;7.25;4.75;;;4.20;99.90;;;;;;4905114;29;20135;-73
2023/01/23 02:37:47;;;;;;;6.10;4.85;;;4.30;99.90;;;;;;4893067;29;20051;-73
2023/01/23 02:40:14;;;;;;;6.80;4.50;;;4.40;99.90;;;;;;4895494;29;20191;-73
2023/01/23 02:42:43;;;;;;;6.68;4.85;;;4.40;99.90;;;;;;4878242;29;20061;-73
2023/01/23 02:45:09;;;;;;;5.43;4.60;;;4.30;99.90;;;;;;4882891;29;20096;-73
2023/01/23 02:47:35;;;;;;;6.22;4.78;;;4.30;99.90;;;;;;4900074;29;20108;-73
2023/01/23 02:50:01;;;;;;;6.65;5.10;;;4.10;99.90;;;;;;4895084;29;20043;-73
2023/01/23 02:52:26;;;;;;;6.22;5.20;;;4.00;99.90;;;;;;4896925;29;20434;-73
2023/01/23 02:54:52;;;;;;;6.32;5.03;;;3.90;99.90;;;;;;4892467;29;20056;-73
2023/01/23 02:57:18;;;;;;;8.23;5.13;;;3.90;99.90;;;;;;4895939;29;20028;-73
2023/01/23 03:02:28;;;;;;;7.25;4.75;;;3.90;99.90;;;;;;4898177;29;20080;-73
2023/01/23 03:04:54;;;;;;;7.47;5.35;;;3.90;99.90;;;;;;4886397;29;20051;-73
2023/01/23 03:07:19;;;;;;;7.22;5.45;;;3.90;99.90;;;;;;4885508;29;20457;-73
2023/01/23 03:09:46;;;;;;;7.95;5.40;;;3.90;99.90;;;;;;4890152;29;20128;-73
2023/01/23 03:12:14;;;;;;;9.90;6.18;;;4.00;99.90;;;;;;4886305;29;20177;-74
2023/01/23 03:14:40;;;;;;;7.43;5.60;;;4.10;99.90;;;;;;4877748;29;20144;-73
2023/01/23 03:17:06;;;;;;;9.02;6.40;;;4.20;99.90;;;;;;4891032;29;20091;-73
2023/01/23 03:19:32;;;;;;;8.13;6.30;;;4.40;99.90;;;;;;4892821;29;20685;-73
2023/01/23 03:21:57;;;;;;;8.65;6.18;;;4.50;99.90;;;;;;4878596;29;20743;-73
2023/01/23 03:24:23;;;;;;;7.68;5.53;;;4.60;99.90;;;;;;4894238;29;20242;-72
2023/01/23 03:26:50;;;;;;;8.73;6.07;;;4.60;99.90;;;;;;4899877;29;20048;-73
2023/01/23 03:32:10;;;;;;;8.13;5.80;;;4.40;99.90;;;;;;4891473;29;20055;-73
2023/01/23 03:34:36;;;;;;;9.95;5.30;;;4.40;99.90;;;;;;4902653;29;20894;-73
2023/01/23 03:37:02;;;;;;;7.68;5.13;;;4.40;99.90;;;;;;4895201;29;20550;-73
2023/01/23 03:42:12;;;;;;;5.22;4.20;;;4.30;99.90;;;;;;4897896;29;20138;-72
2023/01/23 03:44:38;;;;;;;6.68;4.40;;;4.30;99.90;;;;;;4902763;29;20040;-73
2023/01/23 03:47:04;;;;;;;6.15;4.15;;;4.40;99.90;;;;;;4896278;29;20047;-73
2023/01/23 03:49:30;;;;;;;4.63;3.97;;;4.60;99.90;;;;;;4897683;29;20052;-73
2023/01/23 03:51:56;;;;;;;5.25;4.35;;;4.70;99.90;;;;;;4894104;29;20067;-73
2023/01/23 03:54:21;;;;;;;4.25;3.58;;;4.70;99.90;;;;;;4878794;29;20592;-74
2023/01/23 03:56:47;;;;;;;4.00;3.47;;;4.70;99.90;;;;;;4880656;29;20060;-73
2023/01/23 03:59:13;;;;;;;7.13;5.05;;;4.80;99.90;;;;;;4880742;29;20124;-73
2023/01/23 04:01:38;;;;;;;5.75;3.60;;;4.80;99.90;;;;;;4883097;29;20041;-73
2023/01/23 04:04:05;;;;;;;4.05;3.50;;;4.80;99.90;;;;;;4867669;29;20065;-73
2023/01/23 04:06:30;;;;;;;3.67;3.10;;;4.70;99.90;;;;;;4882874;29;20055;-73
2023/01/23 04:08:57;;;;;;;5.05;3.80;;;4.80;99.90;;;;;;4884783;29;20553;-72
2023/01/23 04:11:23;;;;;;;4.80;3.28;;;4.90;99.90;;;;;;4882227;29;20044;-73
2023/01/23 04:13:49;;;;;;;3.83;3.35;;;5.00;99.90;;;;;;4883818;29;20056;-73
2023/01/23 04:16:15;;;;;;;5.57;4.03;;;4.90;99.90;;;;;;4878818;29;20498;-73
2023/01/23 04:18:40;;;;;;;5.55;3.72;;;4.90;99.90;;;;;;4885550;29;20041;-74
2023/01/23 04:21:06;;;;;;;4.20;3.25;;;5.00;99.90;;;;;;4863061;29;20129;-74
2023/01/23 04:23:32;;;;;;;4.25;3.33;;;5.00;99.90;;;;;;4880466;29;20052;-73
2023/01/23 04:25:58;;;;;;;5.28;3.75;;;5.10;99.90;;;;;;4880013;29;20040;-73
2023/01/23 04:28:24;;;;;;;4.93;3.75;;;5.10;99.90;;;;;;4882586;29;20072;-74
2023/01/23 04:30:50;;;;;;;7.43;4.30;;;5.20;99.90;;;;;;4882840;29;20048;-73
2023/01/23 04:33:17;;;;;;;4.82;3.75;;;5.20;99.90;;;;;;4876073;29;20045;-73
2023/01/23 04:35:58;;;;;;;5.05;3.72;;;5.20;99.90;;;;;;4883761;29;20339;-73
2023/01/23 04:38:26;;;;;;;5.68;3.28;;;5.20;99.90;;;;;;4880654;29;21040;-73
2023/01/23 04:40:52;;;;;;;4.55;3.53;;;5.20;99.90;;;;;;4878614;29;20040;-73
2023/01/23 04:43:18;;;;;;;4.72;3.17;;;5.20;99.90;;;;;;4878819;29;20036;-73
2023/01/23 04:45:44;;;;;;;5.05;3.15;;;5.20;99.90;;;;;;4883057;29;20056;-73
2023/01/23 04:48:11;;;;;;;3.85;2.97;;;5.20;99.90;;;;;;4885807;29;21276;-73
2023/01/23 04:50:37;;;;;;;5.97;3.10;;;5.00;99.90;;;;;;4881538;29;20478;-74
2023/01/23 04:53:04;;;;;;;5.30;3.08;;;5.00;99.90;;;;;;4887452;29;20037;-74
2023/01/23 04:55:29;;;;;;;3.85;2.95;;;4.90;99.90;;;;;;4876918;29;20628;-73
2023/01/23 04:57:55;;;;;;;5.50;2.90;;;4.90;99.90;;;;;;4902964;29;20036;-73
2023/01/23 05:00:21;;;;;;;3.03;2.50;;;4.90;99.90;;;;;;4892281;29;20630;-73
2023/01/23 05:02:48;;;;;;;4.40;2.95;;;5.00;99.90;;;;;;4898554;29;20036;-73
2023/01/23 05:05:16;;;;;;;3.38;2.55;;;5.00;99.90;;;;;;4890465;29;20109;-73
2023/01/23 05:07:42;;;;;;;5.00;2.40;;;5.00;99.90;;;;;;4897297;29;20039;-74
2023/01/23 05:10:09;;;;;;;4.72;2.88;;;5.00;99.90;;;;;;4908710;29;20039;-71
2023/01/23 05:12:35;;;;;;;4.53;2.63;;;5.00;99.90;;;;;;4903674;29;20020;-73
2023/01/23 05:15:01;;;;;;;5.93;4.28;;;4.90;99.90;;;;;;4899370;29;20051;-73
2023/01/23 05:17:26;;;;;;;4.28;3.05;;;4.80;99.90;;;;;;4899701;29;20038;-73
2023/01/23 05:19:52;;;;;;;6.25;2.67;;;4.80;99.90;;;;;;4897500;29;20060;-73
2023/01/23 05:22:18;;;;;;;4.00;3.10;;;4.80;99.90;;;;;;4900376;29;24301;-73
2023/01/23 05:24:43;;;;;;;4.10;2.45;;;4.80;99.90;;;;;;4897959;29;20988;-73
2023/01/23 05:27:09;;;;;;;5.25;3.33;;;4.80;99.90;;;;;;4897073;29;20068;-72
2023/01/23 05:29:35;;;;;;;2.75;2.33;;;4.80;99.90;;;;;;4893481;29;20036;-75
2023/01/23 05:32:01;;;;;;;3.75;3.03;;;4.80;99.90;;;;;;4892059;29;20043;-76
2023/01/23 05:34:26;;;;;;;3.58;2.47;;;4.80;99.90;;;;;;4903816;29;20123;-76
2023/01/23 05:36:52;;;;;;;3.28;2.97;;;4.80;99.90;;;;;;4898149;29;20590;-76
2023/01/23 05:39:18;;;;;;;3.10;2.42;;;4.90;99.90;;;;;;4897097;29;20054;-76
2023/01/23 05:41:43;;;;;;;3.65;2.38;;;4.90;99.90;;;;;;4901818;29;20055;-74
2023/01/23 05:44:09;;;;;;;3.53;2.70;;;4.90;99.90;;;;;;4904470;29;20071;-75
2023/01/23 05:46:34;;;;;;;4.13;3.05;;;4.90;99.90;;;;;;4900506;29;20475;-75
2023/01/23 05:49:00;;;;;;;3.30;2.60;;;4.90;99.90;;;;;;4898774;29;20104;-74
2023/01/23 05:51:31;;;;;;;4.72;2.50;;;4.90;99.90;;;;;;4896346;29;20101;-74
2023/01/23 05:53:57;;;;;;;3.20;2.45;;;4.90;99.90;;;;;;4884001;29;20129;-75
2023/01/23 05:56:23;;;;;;;2.95;2.20;;;4.90;99.90;;;;;;4879328;29;20051;-75
2023/01/23 05:58:49;;;;;;;4.35;3.00;;;4.90;99.90;;;;;;4886929;29;20042;-74
2023/01/23 06:01:14;;;;;;;3.67;2.60;;;5.00;99.90;;;;;;4882034;29;20373;-74
2023/01/23 06:03:40;;;;;;;3.83;2.40;;;5.10;99.90;;;;;;4894009;29;20050;-73
2023/01/23 06:06:09;;;;;;;3.35;2.70;;;5.10;99.90;;;;;;4872195;29;20129;-71
2023/01/23 06:08:34;;;;;;;3.95;2.83;;;5.10;99.90;;;;;;4859772;29;20096;-77
2023/01/23 06:11:00;;;;;;;6.20;2.67;;;5.10;99.90;;;;;;4874764;29;20045;-77
2023/01/23 06:13:26;;;;;;;4.15;3.08;;;5.10;99.90;;;;;;4875907;29;20151;-78
2023/01/23 06:15:52;;;;;;;4.22;2.97;;;5.00;99.90;;;;;;4873065;29;20047;-77
2023/01/23 06:18:18;;;;;;;4.65;2.95;;;4.90;99.90;;;;;;4862086;29;20403;-79
2023/01/23 06:20:44;;;;;;;3.70;2.50;;;4.70;99.90;;;;;;4870237;29;20041;-80
2023/01/23 06:23:10;;;;;;;6.85;2.50;;;4.50;99.90;;;;;;4874424;29;20479;-78
2023/01/23 06:25:36;;;;;;;8.05;3.55;;;4.50;99.90;;;;;;4875711;29;20131;-77
2023/01/23 06:28:02;;;;;;;3.08;2.65;;;4.70;99.90;;;;;;4871986;29;20072;-72
2023/01/23 06:30:28;;;;;;;3.10;2.53;;;4.80;99.90;;;;;;4872400;29;20060;-74
2023/01/23 06:32:53;;;;;;;5.97;2.70;;;4.90;99.90;;;;;;4873116;29;20052;-73
2023/01/23 06:35:19;;;;;;;3.85;2.25;;;4.90;99.90;;;;;;4871028;29;20113;-74
2023/01/23 06:37:45;;;;;;;6.13;3.58;;;5.10;99.90;;;;;;4873012;29;20048;-73
2023/01/23 06:40:14;;;;;;;3.83;2.38;;;5.20;99.90;;;;;;4871699;29;20534;-72
2023/01/23 06:42:41;;;;;;;8.80;4.13;;;5.30;99.90;;;;;;4872051;29;20132;-74
2023/01/23 06:45:08;;;;;;;6.22;4.47;;;5.30;99.90;;;;;;4871337;29;20055;-75
2023/01/23 06:47:34;;;;;;;3.72;2.85;;;5.40;99.90;;;;;;4880304;29;20673;-73
2023/01/23 06:50:00;;;;;;;9.57;3.10;;;5.40;99.90;;;;;;4879884;29;20071;-73
2023/01/23 06:52:27;;;;;;;2.97;2.65;;;5.50;99.90;;;;;;4884920;29;20060;-73
2023/01/23 06:54:52;;;;;;;7.50;3.83;;;5.50;99.90;;;;;;4898192;29;20052;-73
2023/01/23 06:57:18;;;;;;;4.15;2.80;;;5.40;99.90;;;;;;4900750;29;20056;-73
2023/01/23 06:59:44;;;;;;;3.45;2.78;;;5.40;99.90;;;;;;4899707;29;20132;-73
2023/01/23 07:02:10;;;;;;;3.97;2.75;;;5.40;99.90;;;;;;4902377;29;20044;-73
2023/01/23 07:04:36;;;;;;;3.60;2.70;;;5.40;99.90;;;;;;4907410;29;20032;-72
2023/01/23 07:07:02;;;;;;;3.17;2.53;;;5.50;99.90;;;;;;4905058;29;20059;-73
2023/01/23 07:09:28;;;;;;;8.23;7.20;;;5.50;99.90;;;;;;4907425;29;20040;-73
2023/01/23 07:11:54;;;;;;;4.00;2.90;;;5.50;99.90;;;;;;4900430;29;20040;-72
2023/01/23 07:14:19;;;;;;;3.20;2.55;;;5.60;99.90;;;;;;4889433;29;20633;-72
2023/01/23 07:16:45;;;;;;;3.03;2.20;;;5.70;99.90;;;;;;4900306;29;20079;-72
2023/01/23 07:19:11;;;;;;;7.30;5.95;;;5.70;99.90;;;;;;4901840;29;20504;-73
2023/01/23 07:21:36;;;;;;;6.55;5.40;;;5.70;99.90;;;;;;4895408;29;20082;-73
2023/01/23 07:24:02;;;;;;;4.53;3.70;;;5.70;99.90;;;;;;4901398;29;20036;-73
2023/01/23 07:26:28;;;;;;;4.53;2.85;;;5.80;99.90;;;;;;4903823;29;20032;-73
2023/01/23 07:28:53;;;;;;;5.00;4.20;;;5.90;99.90;;;;;;4904330;29;20119;-72
2023/01/23 07:31:19;;;;;;;4.25;3.05;;;5.90;99.90;;;;;;4913328;29;20048;-73
2023/01/23 07:33:45;;;;;;;3.42;2.70;;;5.90;99.90;;;;;;4902968;29;20044;-74
2023/01/23 07:36:13;;;;;;;7.35;6.63;;;6.00;99.90;;;;;;4901666;29;20067;-72
2023/01/23 07:38:39;;;;;;;4.40;3.20;;;6.10;99.90;;;;;;4896468;29;20194;-72
2023/01/23 07:41:05;;;;;;;3.22;2.83;;;6.20;99.90;;;;;;4897869;29;20637;-73
2023/01/23 07:43:30;;;;;;;5.32;3.92;;;6.20;99.90;;;;;;4904495;29;20051;-76
2023/01/23 07:45:59;;;;;;;3.22;2.58;;;6.30;99.90;;;;;;4904362;29;20123;-76
2023/01/23 07:48:25;;;;;;;2.75;2.03;;;6.30;99.90;;;;;;4897286;29;20032;-76
2023/01/23 07:50:51;;;;;;;3.67;2.70;;;6.50;99.90;;;;;;4903947;29;20032;-76
2023/01/23 07:53:16;;;;;;;11.80;3.80;;;6.50;99.90;;;;;;4900761;29;20048;-76
2023/01/23 07:55:42;;;;;;;3.30;2.92;;;6.60;99.90;;;;;;4899947;29;20580;-76
2023/01/23 07:58:08;;;;;;;5.45;3.40;;;6.60;99.90;;;;;;4895171;29;20059;-76
2023/01/23 08:00:33;;;;;;;4.15;2.95;;;6.60;99.90;;;;;;4896699;29;20051;-73
2023/01/23 08:02:59;;;;;;;3.78;2.85;;;6.70;99.90;;;;;;4899106;29;20573;-75
2023/01/23 08:05:25;;;;;;;4.88;2.75;;;6.80;99.90;;;;;;4900098;29;20701;-76
2023/01/23 08:07:51;;;;;;;3.25;2.63;;;6.90;99.90;;;;;;4898319;29;20684;-75
2023/01/23 08:10:17;;;;;;;6.28;4.28;;;6.90;99.90;;;;;;4901966;29;20103;-75
2023/01/23 08:12:43;;;;;;;7.78;5.88;;;7.10;99.90;;;;;;4903713;29;20043;-75
2023/01/23 08:15:08;;;;;;;15.98;11.95;;;7.20;99.90;;;;;;4898559;29;20040;-74
2023/01/23 08:17:35;;;;;;;70.60;48.95;;;7.40;99.90;;;;;;4902293;29;20043;-75
2023/01/23 08:20:00;;;;;;;50.28;32.72;;;7.50;99.90;;;;;;4901496;29;20040;-75
2023/01/23 08:22:26;;;;;;;25.00;18.60;;;7.60;99.90;;;;;;4888259;29;20057;-72
2023/01/23 08:24:52;;;;;;;37.28;26.00;;;7.70;99.90;;;;;;4889385;29;20040;-72
2023/01/23 08:27:17;;;;;;;4.53;4.05;;;7.90;99.90;;;;;;4899438;29;20122;-71
2023/01/23 08:29:43;;;;;;;22.48;16.27;;;8.00;99.90;;;;;;4898993;29;20052;-72
2023/01/23 08:32:09;;;;;;;17.50;13.95;;;8.10;99.90;;;;;;4892489;29;20040;-72
2023/01/23 08:34:34;;;;;;;16.42;12.77;;;8.10;99.90;;;;;;4895289;29;20041;-72
2023/01/23 08:37:00;;;;;;;8.80;7.03;;;8.20;99.90;;;;;;4904994;29;20533;-72
2023/01/23 08:39:26;;;;;;;17.42;12.73;;;8.20;99.90;;;;;;4904120;29;20032;-71
2023/01/23 08:41:51;;;;;;;7.32;5.35;;;8.30;99.90;;;;;;4903188;29;20303;-75
2023/01/23 08:44:17;;;;;;;10.30;6.63;;;8.40;99.90;;;;;;4887001;29;20067;-76
2023/01/23 08:46:45;;;;;;;6.97;5.65;;;8.50;99.90;;;;;;4909761;29;20414;-76
2023/01/23 08:49:10;;;;;;;8.95;6.93;;;8.50;99.90;;;;;;4887959;29;20036;-76
2023/01/23 08:51:36;;;;;;;8.15;5.90;;;8.60;99.90;;;;;;4905004;29;20091;-75
2023/01/23 08:54:02;;;;;;;6.40;4.20;;;8.70;99.90;;;;;;4904701;29;20060;-74
2023/01/23 08:56:28;;;;;;;19.02;15.38;;;8.70;99.90;;;;;;4905399;29;20048;-74
2023/01/23 08:58:54;;;;;;;8.18;7.22;;;8.80;99.90;;;;;;4899536;29;20302;-72
2023/01/23 09:01:22;;;;;;;4.25;3.42;;;9.00;99.90;;;;;;4901032;29;20044;-71
2023/01/23 09:03:48;;;;;;;4.32;2.10;;;9.10;99.90;;;;;;4899099;29;20036;-71
2023/01/23 09:06:15;;;;;;;5.85;3.92;;;9.30;99.90;;;;;;4891577;29;20043;-71
2023/01/23 09:08:41;;;;;;;5.72;4.57;;;9.40;99.90;;;;;;4899198;29;20048;-70
2023/01/23 09:11:08;;;;;;;8.68;6.05;;;9.50;99.90;;;;;;4897018;29;20052;-70
2023/01/23 09:13:35;;;;;;;20.85;15.90;;;9.50;99.90;;;;;;4896026;29;20192;-70
2023/01/23 09:16:01;;;;;;;153.65;97.28;;;9.60;99.90;;;;;;4900313;29;20052;-70
2023/01/23 09:18:27;;;;;;;33.88;22.88;;;9.60;99.90;;;;;;4897079;29;20040;-74
2023/01/23 09:20:53;;;;;;;39.85;23.50;;;9.60;99.90;;;;;;4902272;29;20064;-74
2023/01/23 09:23:19;;;;;;;150.88;87.05;;;9.70;99.90;;;;;;4914535;29;20040;-74
2023/01/23 09:25:45;;;;;;;118.82;70.47;;;9.70;99.90;;;;;;4904421;29;20135;-74
2023/01/23 09:28:11;;;;;;;20.83;13.52;;;9.70;99.90;;;;;;4897354;29;20139;-74
2023/01/23 09:30:37;;;;;;;37.25;22.92;;;9.70;99.90;;;;;;4904526;29;20048;-74
2023/01/23 09:33:03;;;;;;;136.52;87.80;;;9.70;99.90;;;;;;4902807;29;20050;-73
2023/01/23 09:35:29;;;;;;;37.03;26.00;;;9.70;99.90;;;;;;4902084;29;20054;-74
2023/01/23 09:38:01;;;;;;;33.22;25.10;;;9.60;99.90;;;;;;4892886;29;20574;-71
2023/01/23 09:40:26;;;;;;;17.33;12.95;;;9.60;99.90;;;;;;4901890;29;20055;-70
2023/01/23 09:42:55;;;;;;;17.30;12.07;;;9.50;99.90;;;;;;4902298;29;20060;-70
2023/01/23 09:45:24;;;;;;;45.67;31.88;;;9.50;99.90;;;;;;4903664;29;20059;-70
2023/01/23 09:48:01;;;;;;;24.42;18.00;;;9.50;99.90;;;;;;4903564;29;20040;-70
2023/01/23 09:50:31;;;;;;;26.13;18.38;;;9.50;99.90;;;;;;4898683;29;20044;-71
2023/01/23 09:53:10;;;;;;;26.30;17.52;;;9.50;99.90;;;;;;4892548;29;20041;-70
2023/01/23 09:55:47;;;;;;;18.35;12.80;;;9.50;99.90;;;;;;4896291;29;20128;-73
2023/01/23 09:58:38;;;;;;;31.80;22.63;;;9.60;99.90;;;;;;4894755;29;20040;-71
2023/01/23 10:01:04;;;;;;;18.65;13.00;;;9.50;99.90;;;;;;4898107;29;20055;-71
2023/01/23 10:03:31;;;;;;;22.23;14.63;;;9.50;99.90;;;;;;4900032;29;20641;-71
2023/01/23 10:06:17;;;;;;;21.98;16.85;;;9.50;99.90;;;;;;4903476;29;20500;-70
2023/01/23 10:08:55;;;;;;;25.75;18.50;;;9.50;99.90;;;;;;4895429;29;20036;-71
2023/01/23 10:11:49;;;;;;;28.80;21.48;;;9.50;99.90;;;;;;4899956;29;20511;-71
2023/01/23 10:14:25;;;;;;;34.13;24.73;;;9.50;99.90;;;;;;4897198;29;20041;-71
2023/01/23 10:16:53;;;;;;;34.50;25.13;;;9.50;99.90;;;;;;4899597;29;20064;-74
2023/01/23 10:19:38;;;;;;;32.22;22.35;;;9.50;99.90;;;;;;4898864;29;20076;-73
2023/01/23 10:22:32;;;;;;;45.58;34.97;;;9.50;99.90;;;;;;4898174;29;20704;-74
2023/01/23 10:24:59;;;;;;;341.92;220.55;;;9.60;99.90;;;;;;4864004;29;20747;-74
2023/01/23 10:27:42;;;;;;;75.28;56.75;;;9.60;99.90;;;;;;4893126;29;20083;-74
2023/01/23 10:30:28;;;;;;;11.93;9.60;;;9.60;99.90;;;;;;4910751;29;20040;-75
2023/01/23 10:33:14;;;;;;;16.05;13.65;;;9.60;99.90;;;;;;4906487;29;20125;-75
2023/01/23 10:35:51;;;;;;;18.73;15.52;;;9.60;99.90;;;;;;4908424;29;20571;-70
2023/01/23 10:38:36;;;;;;;7.15;5.80;;;9.70;99.90;;;;;;4905955;29;20038;-70
2023/01/23 10:41:16;;;;;;;6.93;4.80;;;9.70;99.90;;;;;;4904492;29;20127;-70
2023/01/23 10:43:44;;;;;;;5.45;4.28;;;9.70;99.90;;;;;;4904613;29;20039;-70
2023/01/23 10:46:16;;;;;;;4.03;3.13;;;9.70;99.90;;;;;;4904327;29;20032;-70
2023/01/23 10:48:52;;;;;;;5.20;3.70;;;9.80;99.90;;;;;;4906670;29;20524;-70
2023/01/23 10:51:25;;;;;;;5.07;3.40;;;9.70;99.90;;;;;;4905653;29;20579;-75
2023/01/23 10:54:25;;;;;;;3.40;3.00;;;9.80;99.90;;;;;;4904550;29;20051;-70
2023/01/23 10:56:57;;;;;;;3.45;2.88;;;9.80;99.90;;;;;;4908950;29;20036;-71
2023/01/23 10:59:40;;;;;;;3.87;3.17;;;9.90;99.90;;;;;;4904591;29;20235;-71
2023/01/23 11:02:11;;;;;;;4.00;3.60;;;9.80;99.90;;;;;;4905703;29;20590;-71
2023/01/23 11:04:38;;;;;;;5.05;4.10;;;9.90;99.90;;;;;;4905229;29;20059;-71
2023/01/23 11:07:25;;;;;;;6.90;4.97;;;9.90;99.90;;;;;;4905651;29;20572;-71
2023/01/23 11:09:52;;;;;;;5.32;4.82;;;9.90;99.90;;;;;;4903908;29;20040;-70
2023/01/23 11:12:24;;;;;;;3.20;2.90;;;10.00;99.90;;;;;;4903115;29;20072;-71
2023/01/23 11:14:51;;;;;;;4.18;3.00;;;9.90;99.90;;;;;;4906500;29;20111;-71
2023/01/23 11:17:21;;;;;;;4.45;3.35;;;10.00;99.90;;;;;;4905347;29;20044;-71
2023/01/23 11:19:50;;;;;;;5.03;4.32;;;10.00;99.90;;;;;;4904202;29;20066;-70
2023/01/23 11:22:36;;;;;;;4.47;3.67;;;10.10;99.90;;;;;;4900577;29;20040;-70
2023/01/23 11:25:25;;;;;;;4.05;3.33;;;10.20;99.90;;;;;;4902203;29;20032;-70
2023/01/23 11:28:00;;;;;;;4.28;2.92;;;10.20;99.90;;;;;;4902074;29;20520;-70
2023/01/23 11:30:43;;;;;;;3.90;3.47;;;10.20;99.90;;;;;;4905143;29;20134;-71
2023/01/23 11:33:21;;;;;;;5.10;3.22;;;10.20;99.90;;;;;;4899544;29;20467;-76
2023/01/23 11:36:15;;;;;;;10.70;8.68;;;10.20;99.90;;;;;;4904557;29;20135;-76
2023/01/23 11:38:51;;;;;;;6.07;4.07;;;10.20;99.90;;;;;;4895085;29;20047;-76
2023/01/23 11:41:17;;;;;;;3.63;3.13;;;10.30;99.90;;;;;;4907429;29;20529;-76
2023/01/23 11:43:42;;;;;;;4.70;3.88;;;10.40;99.90;;;;;;4899490;29;20040;-74
2023/01/23 11:46:34;;;;;;;4.57;4.18;;;10.50;99.90;;;;;;4902975;29;20107;-76
2023/01/23 11:48:59;;;;;;;5.50;5.00;;;10.50;99.90;;;;;;4899724;29;20032;-75
2023/01/23 11:51:45;;;;;;;4.90;3.42;;;10.70;99.90;;;;;;4903717;29;20119;-71
2023/01/23 11:54:44;;;;;;;4.32;3.00;;;10.80;99.90;;;;;;4902222;29;20048;-70
2023/01/23 11:57:48;;;;;;;4.20;3.08;;;10.80;99.90;;;;;;4901680;29;20078;-70
2023/01/23 12:00:20;;;;;;;4.50;3.30;;;10.80;99.90;;;;;;4888149;29;20409;-71
2023/01/23 12:02:56;;;;;;;4.72;3.30;;;10.90;99.90;;;;;;4893196;29;20096;-70
2023/01/23 12:05:36;;;;;;;3.78;2.88;;;11.00;99.90;;;;;;4903532;29;20042;-70
2023/01/23 12:08:18;;;;;;;3.85;3.00;;;11.10;99.90;;;;;;4906093;29;20059;-70
2023/01/23 12:11:15;;;;;;;3.83;2.70;;;11.10;99.90;;;;;;4902276;29;20032;-70
2023/01/23 12:14:21;;;;;;;4.28;3.72;;;11.10;99.90;;;;;;4903648;29;20028;-70
2023/01/23 12:17:27;;;;;;;3.78;3.08;;;11.20;99.90;;;;;;4894046;29;20053;-70
2023/01/23 12:19:55;;;;;;;4.13;3.72;;;11.20;99.90;;;;;;4826826;29;20050;-70
2023/01/23 12:22:36;;;;;;;2.97;2.67;;;11.20;99.90;;;;;;4890769;29;20036;-70
2023/01/23 12:25:23;;;;;;;4.28;2.58;;;11.30;99.90;;;;;;4893067;29;20432;-70
2023/01/23 12:28:13;;;;;;;4.50;3.03;;;11.40;99.90;;;;;;4895937;29;20044;-70
2023/01/23 12:30:44;;;;;;;4.90;3.85;;;11.50;99.90;;;;;;4885304;29;20044;-76
2023/01/23 12:33:18;;;;;;;4.50;3.13;;;11.50;99.90;;;;;;4902898;29;20119;-76
2023/01/23 12:36:25;;;;;;;4.80;4.25;;;11.50;99.90;;;;;;4899831;29;20176;-76
2023/01/23 12:39:06;;;;;;;9.65;7.43;;;11.60;99.90;;;;;;4864084;29;20045;-76
2023/01/23 12:41:42;;;;;;;3.72;2.15;;;11.60;99.90;;;;;;4898616;29;20100;-75
2023/01/23 12:44:23;;;;;;;2.97;2.35;;;11.60;99.90;;;;;;4900856;29;20083;-76
2023/01/23 12:47:01;;;;;;;3.70;2.13;;;11.60;99.90;;;;;;4898948;29;20032;-70
2023/01/23 12:49:49;;;;;;;3.20;2.28;;;11.70;99.90;;;;;;4895028;29;20046;-75
2023/01/23 12:52:47;;;;;;;3.58;2.45;;;11.70;99.90;;;;;;4899533;29;20153;-75
2023/01/23 12:55:28;;;;;;;8.00;2.25;;;11.80;99.90;;;;;;4894222;29;20581;-76
2023/01/23 12:57:56;;;;;;;4.97;4.50;;;11.80;99.90;;;;;;4900941;29;20040;-76
2023/01/23 13:00:25;;;;;;;7.72;6.95;;;11.80;99.90;;;;;;4881205;29;20033;-75
2023/01/23 13:03:19;;;;;;;3.20;2.85;;;11.90;99.90;;;;;;4892788;29;20055;-76
2023/01/23 13:06:22;;;;;;;3.53;2.20;;;12.00;99.90;;;;;;4887949;29;20021;-70
2023/01/23 13:08:58;;;;;;;4.18;2.00;;;12.00;99.90;;;;;;4893490;29;20489;-76
2023/01/23 13:11:53;;;;;;;5.93;3.60;;;12.00;99.90;;;;;;4898415;29;20446;-76
2023/01/23 13:14:24;;;;;;;2.75;2.30;;;11.90;99.90;;;;;;4903427;29;20045;-75
2023/01/23 13:16:52;;;;;;;4.40;3.70;;;11.90;99.90;;;;;;4902039;29;20533;-76